sensor_id;sensor_type;location;lat;lon;timestamp;pressure;altitude;pressure_sealevel;temperature;humidity
77149;BME280;66122;47.130;16.844;2022-12-29T00:07:08;100110.50;;;2.28;91.95
77149;BME280;66122;47.130;16.844;2022-12-29T00:17:11;100107.03;;;2.28;92.66
77149;BME280;66122;47.130;16.844;2022-12-29T00:27:15;100110.53;;;2.24;93.81
77149;BME280;66122;47.130;16.844;2022-12-29T00:37:39;100065.53;;;2.05;94.45
77149;BME280;66122;47.130;16.844;2022-12-29T00:48:02;100056.03;;;2.00;96.00
77149;BME280;66122;47.130;16.844;2022-12-29T00:58:05;100089.75;;;2.16;96.83
77149;BME280;66122;47.130;16.844;2022-12-29T01:08:08;100063.03;;;1.96;98.05
77149;BME280;66122;47.130;16.844;2022-12-29T01:18:11;100091.59;;;2.10;100.00
77149;BME280;66122;47.130;16.844;2022-12-29T01:28:14;100049.38;;;1.79;100.00
77149;BME280;66122;47.130;16.844;2022-12-29T01:38:16;100036.44;;;1.70;100.00
77149;BME280;66122;47.130;16.844;2022-12-29T01:48:19;100064.09;;;1.84;100.00
77149;BME280;66122;47.130;16.844;2022-12-29T01:58:24;100043.19;;;1.83;100.00
77149;BME280;66122;47.130;16.844;2022-12-29T02:08:30;100043.09;;;1.92;100.00
77149;BME280;66122;47.130;16.844;2022-12-29T02:18:37;100033.44;;;1.95;100.00
77149;BME280;66122;47.130;16.844;2022-12-29T02:39:02;99960.47;;;1.82;100.00
77149;BME280;66122;47.130;16.844;2022-12-29T02:49:30;99999.63;;;1.86;100.00
77149;BME280;66122;47.130;16.844;2022-12-29T02:59:35;99949.38;;;1.69;100.00
77149;BME280;66122;47.130;16.844;2022-12-29T03:09:50;100009.16;;;1.89;100.00
77149;BME280;66122;47.130;16.844;2022-12-29T03:20:03;99946.19;;;1.50;100.00
77149;BME280;66122;47.130;16.844;2022-12-29T03:30:11;99981.00;;;1.51;100.00
77149;BME280;66122;47.130;16.844;2022-12-29T03:40:14;99979.78;;;1.09;100.00
77149;BME280;66122;47.130;16.844;2022-12-29T03:50:17;99950.69;;;0.69;100.00
77149;BME280;66122;47.130;16.844;2022-12-29T04:00:20;99978.00;;;0.33;100.00
77149;BME280;66122;47.130;16.844;2022-12-29T04:10:25;99943.56;;;-0.03;100.00
77149;BME280;66122;47.130;16.844;2022-12-29T04:20:32;99954.00;;;-0.03;100.00
77149;BME280;66122;47.130;16.844;2022-12-29T04:30:54;99972.22;;;-0.06;100.00
77149;BME280;66122;47.130;16.844;2022-12-29T04:41:01;100012.25;;;-0.19;100.00
77149;BME280;66122;47.130;16.844;2022-12-29T04:51:05;99985.63;;;-0.60;100.00
77149;BME280;66122;47.130;16.844;2022-12-29T05:01:12;100027.06;;;-0.27;100.00
77149;BME280;66122;47.130;16.844;2022-12-29T05:11:15;99966.56;;;-0.65;100.00
77149;BME280;66122;47.130;16.844;2022-12-29T05:21:20;99963.13;;;-0.70;100.00
77149;BME280;66122;47.130;16.844;2022-12-29T05:31:23;99997.59;;;-0.30;100.00
77149;BME280;66122;47.130;16.844;2022-12-29T05:41:27;99966.63;;;-0.74;100.00
77149;BME280;66122;47.130;16.844;2022-12-29T05:51:48;100001.31;;;-0.72;100.00
77149;BME280;66122;47.130;16.844;2022-12-29T06:01:51;99999.59;;;-0.80;100.00
77149;BME280;66122;47.130;16.844;2022-12-29T06:11:54;99969.31;;;-0.96;100.00
77149;BME280;66122;47.130;16.844;2022-12-29T06:21:57;100035.84;;;-0.49;100.00
77149;BME280;66122;47.130;16.844;2022-12-29T06:32:00;99991.00;;;-0.94;100.00
77149;BME280;66122;47.130;16.844;2022-12-29T06:42:06;100037.84;;;-1.10;100.00
77149;BME280;66122;47.130;16.844;2022-12-29T06:52:20;100035.28;;;-1.26;100.00
77149;BME280;66122;47.130;16.844;2022-12-29T07:02:23;99998.88;;;-1.24;100.00
77149;BME280;66122;47.130;16.844;2022-12-29T07:12:27;100038.66;;;-0.89;100.00
77149;BME280;66122;47.130;16.844;2022-12-29T07:22:30;100036.91;;;-0.88;100.00
77149;BME280;66122;47.130;16.844;2022-12-29T07:32:33;100045.25;;;-0.16;100.00
77149;BME280;66122;47.130;16.844;2022-12-29T07:42:37;100068.53;;;0.04;100.00
77149;BME280;66122;47.130;16.844;2022-12-29T07:52:42;100027.72;;;0.07;100.00
77149;BME280;66122;47.130;16.844;2022-12-29T08:02:45;100071.00;;;1.18;100.00
77149;BME280;66122;47.130;16.844;2022-12-29T08:12:48;100014.78;;;2.69;91.21
77149;BME280;66122;47.130;16.844;2022-12-29T08:22:51;100018.59;;;3.82;86.70
77149;BME280;66122;47.130;16.844;2022-12-29T08:32:58;100011.91;;;4.77;80.56
77149;BME280;66122;47.130;16.844;2022-12-29T08:43:00;100046.09;;;4.40;83.09
77149;BME280;66122;47.130;16.844;2022-12-29T08:53:03;100003.53;;;6.14;74.01
77149;BME280;66122;47.130;16.844;2022-12-29T09:03:06;100036.31;;;5.13;76.10
77149;BME280;66122;47.130;16.844;2022-12-29T09:13:10;100004.38;;;4.30;80.05
77149;BME280;66122;47.130;16.844;2022-12-29T09:23:12;100016.72;;;6.12;73.53
77149;BME280;66122;47.130;16.844;2022-12-29T09:33:15;100011.13;;;6.49;70.45
77149;BME280;66122;47.130;16.844;2022-12-29T09:43:39;100007.72;;;6.47;71.08
77149;BME280;66122;47.130;16.844;2022-12-29T09:53:51;99967.72;;;7.11;67.50
77149;BME280;66122;47.130;16.844;2022-12-29T10:03:57;99991.75;;;8.16;66.64
77149;BME280;66122;47.130;16.844;2022-12-29T10:24:26;99957.28;;;7.77;66.40
77149;BME280;66122;47.130;16.844;2022-12-29T10:34:36;99967.91;;;8.61;64.07
77149;BME280;66122;47.130;16.844;2022-12-29T10:44:39;99955.22;;;8.49;65.72
77149;BME280;66122;47.130;16.844;2022-12-29T10:54:52;99922.28;;;9.36;61.84
77149;BME280;66122;47.130;16.844;2022-12-29T11:05:02;99960.25;;;10.27;57.15
77149;BME280;66122;47.130;16.844;2022-12-29T11:25:12;99947.25;;;12.04;54.22
77149;BME280;66122;47.130;16.844;2022-12-29T11:35:34;99910.97;;;13.91;49.23
77149;BME280;66122;47.130;16.844;2022-12-29T11:45:45;99883.50;;;14.95;43.99
77149;BME280;66122;47.130;16.844;2022-12-29T11:56:05;99887.06;;;15.57;41.84
77149;BME280;66122;47.130;16.844;2022-12-29T12:06:12;99878.41;;;15.90;41.49
77149;BME280;66122;47.130;16.844;2022-12-29T13:28:25;99881.63;;;10.45;58.69
77149;BME280;66122;47.130;16.844;2022-12-29T13:38:38;99858.28;;;9.83;61.85
77149;BME280;66122;47.130;16.844;2022-12-29T13:48:51;99850.34;;;9.47;63.63
77149;BME280;66122;47.130;16.844;2022-12-29T13:59:03;99871.22;;;9.15;66.70
77149;BME280;66122;47.130;16.844;2022-12-29T14:09:46;99878.75;;;9.06;66.81
77149;BME280;66122;47.130;16.844;2022-12-29T14:19:52;99884.75;;;8.70;69.98
77149;BME280;66122;47.130;16.844;2022-12-29T14:29:56;99865.94;;;8.37;70.95
77149;BME280;66122;47.130;16.844;2022-12-29T14:40:22;99843.94;;;7.96;72.67
77149;BME280;66122;47.130;16.844;2022-12-29T14:50:30;99877.38;;;7.74;74.68
77149;BME280;66122;47.130;16.844;2022-12-29T15:00:39;99881.28;;;7.20;77.18
77149;BME280;66122;47.130;16.844;2022-12-29T15:11:15;99894.53;;;6.71;78.00
77149;BME280;66122;47.130;16.844;2022-12-29T15:21:34;99893.91;;;5.88;82.50
77149;BME280;66122;47.130;16.844;2022-12-29T15:31:46;99877.28;;;5.60;81.48
77149;BME280;66122;47.130;16.844;2022-12-29T15:42:03;99893.94;;;6.39;76.72
77149;BME280;66122;47.130;16.844;2022-12-29T15:52:09;99856.81;;;6.70;75.12
77149;BME280;66122;47.130;16.844;2022-12-29T16:02:11;99886.25;;;6.81;75.78
77149;BME280;66122;47.130;16.844;2022-12-29T16:12:17;99881.00;;;7.04;76.66
77149;BME280;66122;47.130;16.844;2022-12-29T16:22:34;99894.56;;;7.40;77.05
77149;BME280;66122;47.130;16.844;2022-12-29T16:32:45;99863.94;;;7.58;77.13
77149;BME280;66122;47.130;16.844;2022-12-29T16:42:49;99865.56;;;7.62;77.73
77149;BME280;66122;47.130;16.844;2022-12-29T16:52:53;99856.75;;;7.41;78.70
77149;BME280;66122;47.130;16.844;2022-12-29T17:02:58;99896.09;;;7.68;79.12
77149;BME280;66122;47.130;16.844;2022-12-29T17:13:01;99900.31;;;7.50;79.58
77149;BME280;66122;47.130;16.844;2022-12-29T17:23:13;99859.69;;;6.87;81.52
77149;BME280;66122;47.130;16.844;2022-12-29T17:33:23;99892.16;;;6.88;82.72
77149;BME280;66122;47.130;16.844;2022-12-29T17:43:26;99865.06;;;6.61;83.90
77149;BME280;66122;47.130;16.844;2022-12-29T17:53:37;99846.78;;;6.56;84.38
77149;BME280;66122;47.130;16.844;2022-12-29T18:03:40;99870.06;;;6.69;84.28
77149;BME280;66122;47.130;16.844;2022-12-29T18:13:43;99903.34;;;6.94;84.11
77149;BME280;66122;47.130;16.844;2022-12-29T18:23:49;99887.84;;;6.85;84.33
77149;BME280;66122;47.130;16.844;2022-12-29T18:33:52;99868.91;;;6.76;84.65
77149;BME280;66122;47.130;16.844;2022-12-29T18:43:56;99880.78;;;7.11;84.06
77149;BME280;66122;47.130;16.844;2022-12-29T18:53:59;99867.59;;;7.11;84.33
77149;BME280;66122;47.130;16.844;2022-12-29T19:04:02;99854.53;;;7.07;84.39
77149;BME280;66122;47.130;16.844;2022-12-29T19:14:04;99822.53;;;6.72;85.79
77149;BME280;66122;47.130;16.844;2022-12-29T19:24:07;99813.78;;;6.48;86.44
77149;BME280;66122;47.130;16.844;2022-12-29T19:34:14;99807.13;;;6.38;87.41
77149;BME280;66122;47.130;16.844;2022-12-29T19:44:17;99842.03;;;6.43;88.22
77149;BME280;66122;47.130;16.844;2022-12-29T19:54:20;99847.50;;;6.37;89.43
77149;BME280;66122;47.130;16.844;2022-12-29T20:04:23;99802.72;;;6.13;90.32
77149;BME280;66122;47.130;16.844;2022-12-29T20:14:26;99795.97;;;6.06;91.60
77149;BME280;66122;47.130;16.844;2022-12-29T20:24:29;99834.34;;;6.37;91.54
77149;BME280;66122;47.130;16.844;2022-12-29T20:34:32;99828.19;;;6.38;91.34
77149;BME280;66122;47.130;16.844;2022-12-29T20:44:35;99797.69;;;6.32;91.29
77149;BME280;66122;47.130;16.844;2022-12-29T20:54:37;99788.44;;;6.20;92.48
77149;BME280;66122;47.130;16.844;2022-12-29T21:04:41;99799.13;;;6.16;92.82
77149;BME280;66122;47.130;16.844;2022-12-29T21:15:04;99832.25;;;6.21;93.46
77149;BME280;66122;47.130;16.844;2022-12-29T21:25:07;99797.78;;;5.78;94.69
77149;BME280;66122;47.130;16.844;2022-12-29T21:35:10;99785.88;;;5.68;96.45
77149;BME280;66122;47.130;16.844;2022-12-29T21:45:13;99806.91;;;5.68;97.36
77149;BME280;66122;47.130;16.844;2022-12-29T21:55:28;99809.53;;;5.68;97.55
77149;BME280;66122;47.130;16.844;2022-12-29T22:05:31;99786.38;;;4.98;100.00
77149;BME280;66122;47.130;16.844;2022-12-29T22:15:52;99790.47;;;4.79;100.00
77149;BME280;66122;47.130;16.844;2022-12-29T22:25:55;99781.53;;;5.13;100.00
77149;BME280;66122;47.130;16.844;2022-12-29T22:35:58;99755.63;;;5.02;100.00
77149;BME280;66122;47.130;16.844;2022-12-29T22:46:04;99764.56;;;4.39;100.00
77149;BME280;66122;47.130;16.844;2022-12-29T22:56:11;99790.59;;;4.14;100.00
77149;BME280;66122;47.130;16.844;2022-12-29T23:06:15;99735.28;;;3.60;100.00
77149;BME280;66122;47.130;16.844;2022-12-29T23:16:19;99780.19;;;3.45;100.00
77149;BME280;66122;47.130;16.844;2022-12-29T23:26:27;99767.41;;;2.96;100.00
77149;BME280;66122;47.130;16.844;2022-12-29T23:36:31;99742.38;;;2.84;100.00
77149;BME280;66122;47.130;16.844;2022-12-29T23:46:33;99757.59;;;2.67;100.00
77149;BME280;66122;47.130;16.844;2022-12-29T23:56:36;99791.41;;;2.76;100.00
